createdAt,value
2018-08-03T00:01:46.020Z,52.28
2018-08-03T00:04:13.877Z,53.21
2018-08-03T00:06:41.749Z,52.41
2018-08-03T00:09:10.019Z,56.90
2018-08-03T00:11:38.417Z,55.51
2018-08-03T00:14:06.272Z,57.73
2018-08-03T00:16:34.123Z,57.71
2018-08-03T00:19:02.013Z,58.46
2018-08-03T00:21:29.943Z,57.37
2018-08-03T00:23:58.051Z,56.79
2018-08-03T00:26:25.846Z,56.38
2018-08-03T00:28:53.696Z,58.30
2018-08-03T00:31:21.820Z,58.14
2018-08-03T00:33:49.623Z,57.28
2018-08-03T00:36:17.648Z,55.43
2018-08-03T00:38:45.720Z,57.44
2018-08-03T00:41:13.580Z,59.21
2018-08-03T00:43:41.479Z,58.96
2018-08-03T00:46:09.300Z,58.25
2018-08-03T00:48:37.127Z,60.58
2018-08-03T00:51:05.057Z,56.60
2018-08-03T00:53:32.839Z,59.56
2018-08-03T00:56:00.662Z,57.14
2018-08-03T00:58:28.435Z,55.94
2018-08-03T01:00:56.159Z,56.38
2018-08-03T01:03:24.026Z,57.10
2018-08-03T01:05:52.066Z,56.34
2018-08-03T01:08:19.782Z,58.89
2018-08-03T01:10:47.661Z,58.10
2018-08-03T01:13:15.499Z,58.77
2018-08-03T01:15:43.301Z,58.94
2018-08-03T01:18:11.115Z,58.55
2018-08-03T01:20:38.927Z,59.26
2018-08-03T01:23:06.696Z,57.50
2018-08-03T01:25:34.471Z,59.39
2018-08-03T01:28:02.263Z,56.96
2018-08-03T01:30:30.155Z,60.23
2018-08-03T01:32:57.920Z,61.37
2018-08-03T01:35:25.824Z,61.00
2018-08-03T01:37:53.654Z,59.79
2018-08-03T01:40:21.524Z,61.06
2018-08-03T01:42:49.343Z,60.40
2018-08-03T01:45:17.107Z,59.28
2018-08-03T01:47:44.911Z,60.04
2018-08-03T01:50:12.665Z,60.58
2018-08-03T01:52:40.481Z,59.95
2018-08-03T01:55:08.226Z,60.25
2018-08-03T01:57:36.064Z,59.80
2018-08-03T02:00:04.266Z,60.22
2018-08-03T02:02:32.143Z,61.76
2018-08-03T02:05:00.628Z,60.37
2018-08-03T02:07:28.463Z,61.68
2018-08-03T02:09:56.344Z,60.98
2018-08-03T02:12:24.195Z,60.02
2018-08-03T02:14:52.076Z,61.24
2018-08-03T02:17:19.931Z,59.95
2018-08-03T02:19:47.787Z,60.20
2018-08-03T02:22:15.714Z,60.14
2018-08-03T02:24:43.565Z,60.28
2018-08-03T02:27:11.428Z,60.86
2018-08-03T02:29:39.270Z,61.97
2018-08-03T02:32:07.155Z,61.92
2018-08-03T02:34:34.957Z,61.17
2018-08-03T02:37:02.747Z,61.63
2018-08-03T02:39:30.547Z,60.55
2018-08-03T02:41:58.348Z,59.16
2018-08-03T02:44:26.112Z,61.10
2018-08-03T02:46:53.939Z,61.32
2018-08-03T02:49:21.763Z,61.72
2018-08-03T02:51:49.526Z,61.13
2018-08-03T02:54:17.333Z,59.20
2018-08-03T02:56:45.111Z,59.92
2018-08-03T02:59:12.928Z,60.23
2018-08-03T03:01:40.768Z,59.23
2018-08-03T03:04:08.860Z,61.08
2018-08-03T03:06:36.680Z,61.72
2018-08-03T03:09:08.419Z,61.16
2018-08-03T03:11:36.390Z,62.58
2018-08-03T03:14:04.390Z,60.83
2018-08-03T03:16:32.211Z,61.42
2018-08-03T03:19:00.275Z,60.61
2018-08-03T03:21:28.111Z,60.67
2018-08-03T03:23:55.907Z,60.54
2018-08-03T03:26:23.755Z,60.58
2018-08-03T03:28:51.651Z,63.69
2018-08-03T03:31:19.405Z,63.28
2018-08-03T03:33:47.249Z,63.70
2018-08-03T03:36:15.033Z,63.84
2018-08-03T03:38:42.827Z,62.08
2018-08-03T03:41:10.725Z,62.53
2018-08-03T03:43:38.504Z,60.39
2018-08-03T03:46:06.927Z,63.92
2018-08-03T03:48:34.759Z,63.28
2018-08-03T03:51:02.630Z,60.96
2018-08-03T03:53:30.467Z,60.92
2018-08-03T03:55:58.294Z,62.36
2018-08-03T03:58:26.107Z,64.84
2018-08-03T04:00:53.958Z,65.57
2018-08-03T04:03:21.817Z,66.31
2018-08-03T04:05:49.725Z,65.91
2018-08-03T04:08:17.498Z,64.28
2018-08-03T04:10:45.367Z,63.52
2018-08-03T04:13:13.151Z,63.37
2018-08-03T04:15:41.003Z,64.66
2018-08-03T04:20:38.135Z,65.21
2018-08-03T04:23:06.482Z,63.17
2018-08-03T04:25:34.285Z,64.68
2018-08-03T04:28:02.044Z,63.74
2018-08-03T04:30:29.834Z,65.33
2018-08-03T04:32:57.676Z,62.74
2018-08-03T04:35:25.553Z,66.12
2018-08-03T04:37:53.360Z,64.48
2018-08-03T04:40:21.202Z,64.17
2018-08-03T04:42:49.018Z,64.64
2018-08-03T04:45:16.840Z,65.17
2018-08-03T04:47:44.632Z,66.89
2018-08-03T04:50:12.420Z,62.93
2018-08-03T04:52:40.235Z,65.18
2018-08-03T04:55:08.532Z,65.28
2018-08-03T04:57:36.339Z,65.21
2018-08-03T05:00:04.704Z,65.70
2018-08-03T05:02:32.531Z,66.00
2018-08-03T05:05:00.341Z,65.10
2018-08-03T05:07:28.109Z,63.48
2018-08-03T05:09:55.858Z,65.29
2018-08-03T05:12:23.683Z,65.50
2018-08-03T05:14:51.496Z,64.93
2018-08-03T05:17:19.335Z,65.52
2018-08-03T05:19:47.171Z,65.32
2018-08-03T05:22:15.047Z,64.83
2018-08-03T05:24:42.845Z,64.50
2018-08-03T05:27:10.608Z,63.69
2018-08-03T05:29:38.372Z,61.70
2018-08-03T05:32:06.306Z,60.63
2018-08-03T05:34:34.146Z,59.48
2018-08-03T05:37:02.311Z,57.24
2018-08-03T05:39:30.163Z,57.23
2018-08-03T05:41:58.019Z,56.37
2018-08-03T05:44:25.873Z,56.16
2018-08-03T05:46:53.620Z,55.27
2018-08-03T05:49:21.511Z,55.39
2018-08-03T05:51:49.371Z,54.75
2018-08-03T05:54:17.169Z,54.63
2018-08-03T05:56:45.052Z,53.64
2018-08-03T05:59:13.043Z,53.55
2018-08-03T06:01:40.961Z,53.11
2018-08-03T06:04:12.475Z,52.01
2018-08-03T06:06:40.329Z,52.72
2018-08-03T06:09:09.488Z,51.81
2018-08-03T06:11:37.423Z,51.30
2018-08-03T06:14:06.062Z,52.15
2018-08-03T06:16:33.968Z,52.30
2018-08-03T06:19:02.116Z,52.17
2018-08-03T06:21:30.795Z,52.62
2018-08-03T06:23:58.826Z,52.35
2018-08-03T06:26:26.671Z,51.58
2018-08-03T06:28:54.672Z,51.37
2018-08-03T06:31:22.522Z,51.70
2018-08-03T06:33:50.519Z,51.49
2018-08-03T06:36:18.392Z,51.33
2018-08-03T06:38:46.349Z,50.95
2018-08-03T06:41:14.236Z,50.34
2018-08-03T06:43:42.168Z,51.24
2018-08-03T06:46:10.722Z,50.34
2018-08-03T06:48:38.511Z,50.21
2018-08-03T06:51:06.647Z,50.07
2018-08-03T06:53:34.692Z,50.76
2018-08-03T06:56:02.695Z,49.92
2018-08-03T06:58:30.588Z,49.47
2018-08-03T07:00:58.856Z,50.61
2018-08-03T07:03:26.764Z,50.10
2018-08-03T07:05:54.715Z,50.82
2018-08-03T07:08:22.699Z,49.50
2018-08-03T07:10:50.526Z,49.67
2018-08-03T07:13:18.332Z,49.24
2018-08-03T07:15:46.132Z,48.97
2018-08-03T07:18:14.160Z,48.79
2018-08-03T07:20:42.088Z,48.86
2018-08-03T07:23:09.833Z,47.31
2018-08-03T07:25:37.670Z,47.22
2018-08-03T07:28:05.630Z,47.46
2018-08-03T07:30:33.455Z,47.52
2018-08-03T07:33:01.356Z,47.58
2018-08-03T07:35:29.109Z,46.69
2018-08-03T07:37:57.007Z,47.71
2018-08-03T07:40:24.775Z,46.40
2018-08-03T07:42:52.573Z,47.03
2018-08-03T07:45:20.391Z,45.79
2018-08-03T07:47:48.244Z,46.82
2018-08-03T07:50:16.032Z,47.35
2018-08-03T07:52:43.880Z,47.12
2018-08-03T07:55:11.761Z,46.62
2018-08-03T07:57:39.544Z,46.75
2018-08-03T08:00:07.455Z,46.05
2018-08-03T08:02:35.255Z,45.97
2018-08-03T08:05:03.131Z,46.13
2018-08-03T08:07:30.919Z,44.60
2018-08-03T08:09:58.816Z,45.15
2018-08-03T08:12:26.627Z,44.27
2018-08-03T08:14:54.472Z,44.00
2018-08-03T08:17:22.320Z,43.86
2018-08-03T08:19:50.036Z,44.58
2018-08-03T08:22:17.864Z,44.38
2018-08-03T08:24:45.662Z,43.50
2018-08-03T08:27:13.551Z,43.66
2018-08-03T08:29:41.381Z,43.21
2018-08-03T08:32:09.229Z,43.53
2018-08-03T08:34:37.071Z,43.50
2018-08-03T08:37:05.274Z,43.44
2018-08-03T08:39:33.055Z,43.27
2018-08-03T08:42:00.916Z,41.86
2018-08-03T08:44:28.851Z,41.73
2018-08-03T08:46:56.629Z,41.28
2018-08-03T08:49:24.404Z,41.40
2018-08-03T08:51:52.235Z,41.76
2018-08-03T08:54:20.050Z,41.33
2018-08-03T08:56:47.840Z,41.85
2018-08-03T08:59:15.674Z,41.59
2018-08-03T09:01:43.535Z,40.08
2018-08-03T09:04:11.347Z,41.05
2018-08-03T09:06:39.192Z,40.38
2018-08-03T09:09:09.245Z,39.97
2018-08-03T09:11:37.600Z,39.86
2018-08-03T09:14:05.599Z,39.91
2018-08-03T09:16:33.439Z,39.41
2018-08-03T09:19:01.284Z,38.95
2018-08-03T09:21:29.125Z,39.62
2018-08-03T09:23:56.990Z,38.51
2018-08-03T09:26:24.813Z,38.94
2018-08-03T09:28:52.671Z,38.63
2018-08-03T09:31:20.424Z,37.90
2018-08-03T09:33:48.342Z,38.43
2018-08-03T09:36:16.184Z,38.49
2018-08-03T09:38:44.013Z,37.93
2018-08-03T09:41:11.866Z,37.48
2018-08-03T09:43:39.683Z,37.72
2018-08-03T09:46:07.543Z,36.62
2018-08-03T09:48:35.427Z,36.84
2018-08-03T09:51:03.245Z,36.53
2018-08-03T09:53:31.055Z,35.58
2018-08-03T09:55:58.824Z,36.31
2018-08-03T09:58:26.695Z,35.75
2018-08-03T10:00:55.975Z,34.12
2018-08-03T10:03:24.427Z,33.82
2018-08-03T10:05:52.244Z,32.93
2018-08-03T10:08:20.195Z,33.07
2018-08-03T10:10:48.208Z,32.90
2018-08-03T10:13:16.475Z,31.75
2018-08-03T10:15:44.307Z,31.34
2018-08-03T10:18:12.155Z,32.01
2018-08-03T10:20:40.073Z,30.82
2018-08-03T10:23:08.163Z,30.70
2018-08-03T10:25:35.890Z,30.67
2018-08-03T10:28:03.751Z,29.76
2018-08-03T10:30:31.551Z,30.35
2018-08-03T10:32:59.287Z,29.42
2018-08-03T10:35:27.191Z,29.03
2018-08-03T10:37:54.976Z,27.61
2018-08-03T10:40:22.927Z,26.43
2018-08-03T10:42:50.836Z,25.98
2018-08-03T10:45:18.599Z,25.09
2018-08-03T10:47:46.378Z,24.77
2018-08-03T10:50:14.927Z,23.83
2018-08-03T10:52:42.956Z,23.80
2018-08-03T10:55:10.840Z,22.49
2018-08-03T10:57:38.699Z,20.55
2018-08-03T11:00:07.859Z,20.39
2018-08-03T11:02:35.699Z,19.73
2018-08-03T11:05:03.739Z,19.50
2018-08-03T11:07:31.491Z,18.66
2018-08-03T11:09:59.343Z,18.38
2018-08-03T11:12:27.143Z,17.59
2018-08-03T11:14:54.962Z,17.07
2018-08-03T11:17:22.832Z,16.72
2018-08-03T11:19:50.620Z,15.92
2018-08-03T11:22:18.471Z,15.40
2018-08-03T11:24:46.367Z,16.25
2018-08-03T11:27:14.173Z,16.38
2018-08-03T11:29:42.023Z,15.52
2018-08-03T11:32:09.887Z,15.44
2018-08-03T11:34:37.707Z,15.15
2018-08-03T11:37:05.641Z,14.67
2018-08-03T11:39:33.453Z,14.53
2018-08-03T11:42:01.623Z,15.33
2018-08-03T11:44:29.400Z,15.25
2018-08-03T11:46:57.219Z,14.71
2018-08-03T11:49:25.039Z,14.46
2018-08-03T11:51:52.828Z,14.24
2018-08-03T11:54:20.670Z,13.96
2018-08-03T11:56:48.471Z,13.60
2018-08-03T11:59:16.269Z,13.61
2018-08-03T12:01:44.098Z,13.55
2018-08-03T12:04:11.983Z,14.28
2018-08-03T12:06:39.806Z,14.04
2018-08-03T12:09:07.958Z,14.92
2018-08-03T12:11:36.011Z,15.35
2018-08-03T12:14:03.883Z,14.45
2018-08-03T12:16:31.756Z,15.04
2018-08-03T12:18:59.751Z,13.90
2018-08-03T12:21:27.638Z,14.10
2018-08-03T12:23:55.570Z,15.09
2018-08-03T12:26:23.339Z,15.21
2018-08-03T12:28:51.119Z,14.91
2018-08-03T12:31:18.981Z,14.67
2018-08-03T12:33:46.686Z,13.00
2018-08-03T12:36:14.655Z,13.81
2018-08-03T12:38:42.495Z,13.91
2018-08-03T12:41:10.251Z,14.34
2018-08-03T12:43:38.193Z,13.67
2018-08-03T12:46:06.249Z,14.09
2018-08-03T12:48:34.012Z,14.69
2018-08-03T12:51:01.955Z,14.22
2018-08-03T12:53:29.727Z,15.03
2018-08-03T12:55:57.679Z,14.97
2018-08-03T12:58:25.719Z,14.90
2018-08-03T13:00:53.535Z,16.19
2018-08-03T13:03:21.355Z,14.62
2018-08-03T13:05:49.156Z,14.63
2018-08-03T13:08:17.043Z,14.73
2018-08-03T13:10:45.095Z,15.40
2018-08-03T13:13:12.868Z,14.30
2018-08-03T13:15:40.715Z,15.50
2018-08-03T13:18:08.903Z,14.84
2018-08-03T13:20:36.969Z,15.73
2018-08-03T13:23:05.007Z,14.79
2018-08-03T13:25:32.814Z,16.38
2018-08-03T13:28:00.958Z,15.75
2018-08-03T13:30:28.754Z,15.62
2018-08-03T13:32:56.523Z,16.39
2018-08-03T13:35:24.452Z,16.14
2018-08-03T13:37:52.330Z,14.10
2018-08-03T13:40:20.192Z,15.68
2018-08-03T13:42:48.273Z,15.18
2018-08-03T13:45:16.132Z,15.49
2018-08-03T13:47:44.018Z,15.83
2018-08-03T13:50:11.909Z,16.74
2018-08-03T13:52:39.788Z,17.47
2018-08-03T13:55:07.622Z,17.92
2018-08-03T13:57:35.551Z,17.64
2018-08-03T14:00:05.373Z,18.86
2018-08-03T14:02:33.938Z,18.53
2018-08-03T14:05:01.734Z,17.17
2018-08-03T14:07:29.795Z,18.41
2018-08-03T14:09:57.765Z,17.53
2018-08-03T14:12:25.600Z,17.77
2018-08-03T14:14:54.011Z,18.66
2018-08-03T14:17:21.853Z,18.21
2018-08-03T14:19:49.738Z,17.16
2018-08-03T14:22:17.580Z,18.46
2018-08-03T14:24:45.371Z,18.46
2018-08-03T14:27:13.211Z,19.22
2018-08-03T14:29:40.957Z,18.57
2018-08-03T14:32:08.971Z,17.01
2018-08-03T14:34:36.759Z,17.31
2018-08-03T14:37:04.705Z,19.40
2018-08-03T14:39:32.579Z,19.11
2018-08-03T14:42:00.427Z,17.65
2018-08-03T14:44:28.304Z,18.75
2018-08-03T14:46:56.036Z,19.32
2018-08-03T14:49:23.874Z,18.47
2018-08-03T14:51:51.754Z,19.42
2018-08-03T14:54:19.651Z,20.16
2018-08-03T14:56:47.454Z,19.63
2018-08-03T14:59:15.223Z,19.13
2018-08-03T15:01:43.087Z,19.78
2018-08-03T15:04:11.573Z,19.20
2018-08-03T15:06:39.463Z,18.62
2018-08-03T15:09:09.615Z,20.39
2018-08-03T15:11:37.488Z,19.62
2018-08-03T15:14:05.360Z,18.19
2018-08-03T15:16:33.107Z,19.69
2018-08-03T15:19:00.952Z,18.12
2018-08-03T15:21:28.824Z,18.70
2018-08-03T15:23:56.711Z,18.75
2018-08-03T15:26:24.516Z,19.09
2018-08-03T15:28:52.458Z,19.91
2018-08-03T15:31:20.324Z,18.59
2018-08-03T15:33:48.114Z,18.70
2018-08-03T15:36:16.019Z,20.65
2018-08-03T15:38:43.902Z,18.12
2018-08-03T15:41:11.669Z,18.07
2018-08-03T15:43:39.468Z,18.23
2018-08-03T15:46:07.276Z,18.86
2018-08-03T15:48:35.044Z,19.10
2018-08-03T15:51:02.916Z,19.09
2018-08-03T15:53:30.811Z,18.29
2018-08-03T15:55:58.659Z,19.79
2018-08-03T15:58:26.679Z,18.84
2018-08-03T16:00:54.505Z,19.60
2018-08-03T16:03:22.295Z,19.55
2018-08-03T16:05:50.200Z,19.17
2018-08-03T16:08:18.040Z,20.48
2018-08-03T16:10:46.087Z,19.91
2018-08-03T16:13:14.003Z,18.57
2018-08-03T16:15:41.815Z,19.16
2018-08-03T16:18:09.594Z,18.81
2018-08-03T16:20:37.521Z,18.47
2018-08-03T16:23:05.335Z,19.13
2018-08-03T16:25:33.108Z,19.38
2018-08-03T16:28:00.963Z,20.77
2018-08-03T16:30:28.913Z,20.28
2018-08-03T16:32:56.708Z,19.91
2018-08-03T16:35:24.543Z,20.09
2018-08-03T16:37:52.299Z,20.17
2018-08-03T16:40:20.211Z,20.09
2018-08-03T16:42:48.022Z,19.43
2018-08-03T16:45:15.811Z,19.81
2018-08-03T16:47:43.700Z,21.05
2018-08-03T16:50:11.595Z,19.85
2018-08-03T16:52:39.422Z,19.69
2018-08-03T16:55:07.259Z,20.90
2018-08-03T16:57:35.059Z,21.11
2018-08-03T17:00:03.475Z,20.10
2018-08-03T17:02:31.247Z,20.58
2018-08-03T17:04:59.031Z,20.98
2018-08-03T17:07:26.786Z,21.20
2018-08-03T17:09:54.671Z,21.60
2018-08-03T17:12:22.384Z,20.57
2018-08-03T17:14:50.243Z,20.95
2018-08-03T17:17:18.465Z,20.48
2018-08-03T17:19:46.314Z,21.09
2018-08-03T17:22:14.344Z,21.49
2018-08-03T17:24:42.243Z,19.57
2018-08-03T17:27:10.644Z,21.36
2018-08-03T17:29:38.616Z,21.80
2018-08-03T17:32:06.954Z,20.51
2018-08-03T17:37:07.872Z,21.77
2018-08-03T17:39:35.667Z,21.35
2018-08-03T17:42:03.531Z,21.70
2018-08-03T17:44:31.460Z,21.37
2018-08-03T17:46:59.183Z,20.99
2018-08-03T17:49:27.094Z,21.99
2018-08-03T17:51:54.977Z,21.30
2018-08-03T17:54:22.757Z,21.27
2018-08-03T17:56:50.615Z,21.96
2018-08-03T17:59:18.459Z,21.88
2018-08-03T18:01:46.211Z,22.47
2018-08-03T18:04:14.073Z,22.68
2018-08-03T18:06:41.900Z,22.50
2018-08-03T18:09:09.727Z,22.95
2018-08-03T18:11:37.638Z,22.38
2018-08-03T18:14:05.495Z,22.85
2018-08-03T18:16:33.567Z,23.07
2018-08-03T18:19:01.540Z,22.90
2018-08-03T18:21:29.352Z,23.32
2018-08-03T18:23:57.204Z,22.99
2018-08-03T18:26:25.091Z,23.16
2018-08-03T18:28:53.011Z,23.51
2018-08-03T18:31:20.876Z,23.67
2018-08-03T18:33:48.722Z,24.17
2018-08-03T18:36:16.512Z,23.85
2018-08-03T18:38:44.467Z,24.12
2018-08-03T18:41:12.259Z,23.61
2018-08-03T18:43:40.131Z,24.67
2018-08-03T18:46:07.949Z,24.14
2018-08-03T18:48:35.835Z,25.16
2018-08-03T18:51:03.774Z,25.11
2018-08-03T18:53:31.709Z,25.31
2018-08-03T18:55:59.510Z,25.52
2018-08-03T18:58:27.351Z,25.49
2018-08-03T19:00:55.524Z,25.34
2018-08-03T19:03:23.418Z,25.71
2018-08-03T19:05:51.239Z,26.01
2018-08-03T19:08:19.227Z,26.65
2018-08-03T19:10:47.567Z,26.66
2018-08-03T19:13:15.661Z,26.72
2018-08-03T19:15:43.537Z,27.27
2018-08-03T19:18:11.471Z,26.55
2018-08-03T19:20:39.513Z,27.66
2018-08-03T19:23:07.459Z,27.24
2018-08-03T19:25:35.298Z,26.94
2018-08-03T19:28:03.075Z,27.58
2018-08-03T19:30:31.316Z,27.22
2018-08-03T19:32:59.379Z,27.58
2018-08-03T19:35:27.435Z,28.05
2018-08-03T19:37:55.230Z,28.50
2018-08-03T19:40:23.112Z,27.85
2018-08-03T19:42:51.907Z,28.25
2018-08-03T19:45:19.730Z,28.95
2018-08-03T19:47:48.131Z,29.04
2018-08-03T19:50:15.867Z,29.63
2018-08-03T19:52:44.009Z,29.16
2018-08-03T19:55:11.974Z,29.65
2018-08-03T19:57:39.792Z,30.02
2018-08-03T20:00:10.978Z,29.71
2018-08-03T20:02:39.231Z,29.82
2018-08-03T20:05:12.160Z,30.16
2018-08-03T20:07:40.028Z,30.23
2018-08-03T20:10:08.313Z,30.19
2018-08-03T20:12:36.175Z,30.94
2018-08-03T20:15:04.934Z,30.64
2018-08-03T20:17:32.907Z,31.29
2018-08-03T20:20:00.745Z,31.00
2018-08-03T20:22:28.610Z,31.13
2018-08-03T20:24:56.477Z,30.51
2018-08-03T20:27:24.324Z,31.05
2018-08-03T20:29:52.147Z,31.25
2018-08-03T20:32:20.010Z,31.09
2018-08-03T20:34:47.857Z,31.73
2018-08-03T20:37:15.791Z,31.54
2018-08-03T20:39:43.679Z,32.25
2018-08-03T20:42:11.466Z,31.75
2018-08-03T20:44:39.325Z,32.31
2018-08-03T20:47:07.070Z,32.75
2018-08-03T20:49:34.926Z,32.91
2018-08-03T20:52:02.882Z,32.35
2018-08-03T20:54:30.679Z,33.41
2018-08-03T20:56:58.799Z,33.19
2018-08-03T20:59:26.628Z,33.55
2018-08-03T21:01:54.460Z,32.45
2018-08-03T21:04:22.329Z,32.81
2018-08-03T21:06:50.175Z,33.46
2018-08-03T21:09:17.968Z,33.89
2018-08-03T21:11:45.800Z,33.87
2018-08-03T21:14:13.585Z,34.44
2018-08-03T21:16:41.380Z,34.50
2018-08-03T21:19:09.250Z,34.77
2018-08-03T21:21:37.047Z,33.57
2018-08-03T21:24:05.550Z,33.51
2018-08-03T21:26:33.672Z,34.33
2018-08-03T21:29:01.544Z,34.83
2018-08-03T21:31:29.380Z,36.01
2018-08-03T21:33:57.472Z,35.23
2018-08-03T21:36:25.502Z,35.02
2018-08-03T21:38:53.294Z,36.37
2018-08-03T21:41:21.302Z,36.23
2018-08-03T21:43:49.090Z,36.37
2018-08-03T21:46:16.921Z,36.41
2018-08-03T21:48:44.731Z,36.55
2018-08-03T21:51:12.535Z,37.12
2018-08-03T21:53:40.350Z,37.32
2018-08-03T21:56:08.143Z,37.43
2018-08-03T21:58:35.943Z,37.08
2018-08-03T22:01:03.810Z,36.64
2018-08-03T22:03:31.713Z,36.85
2018-08-03T22:05:59.571Z,37.71
2018-08-03T22:08:27.526Z,36.76
2018-08-03T22:10:55.363Z,37.54
2018-08-03T22:13:23.199Z,38.39
2018-08-03T22:15:51.007Z,36.64
2018-08-03T22:18:18.931Z,37.97
2018-08-03T22:20:46.752Z,37.46
2018-08-03T22:23:14.555Z,37.42
2018-08-03T22:25:42.503Z,38.08
2018-08-03T22:28:10.355Z,38.12
2018-08-03T22:30:38.179Z,38.91
2018-08-03T22:33:06.050Z,39.09
2018-08-03T22:35:33.867Z,39.58
2018-08-03T22:38:01.701Z,39.09
2018-08-03T22:40:29.511Z,39.18
2018-08-03T22:42:57.384Z,37.97
2018-08-03T22:45:25.188Z,37.52
2018-08-03T22:47:53.934Z,37.18
2018-08-03T22:50:21.838Z,37.56
2018-08-03T22:52:49.756Z,37.43
2018-08-03T22:55:17.522Z,37.06
2018-08-03T22:57:45.311Z,37.47
2018-08-03T23:00:13.167Z,36.97
2018-08-03T23:02:40.978Z,37.17
2018-08-03T23:05:08.894Z,37.63
2018-08-03T23:07:36.697Z,37.67
2018-08-03T23:10:05.474Z,36.75
2018-08-03T23:12:33.322Z,37.36
2018-08-03T23:15:01.056Z,37.62
2018-08-03T23:17:28.845Z,37.73
2018-08-03T23:19:56.759Z,37.49
2018-08-03T23:22:24.588Z,37.86
2018-08-03T23:24:52.429Z,38.05
2018-08-03T23:27:20.179Z,38.44
2018-08-03T23:29:48.035Z,37.46
2018-08-03T23:32:15.786Z,37.21
2018-08-03T23:34:43.599Z,37.54
2018-08-03T23:37:11.374Z,37.82
2018-08-03T23:39:39.188Z,37.32
2018-08-03T23:42:06.970Z,37.58
2018-08-03T23:44:34.736Z,37.99
2018-08-03T23:47:02.818Z,39.51
2018-08-03T23:49:30.598Z,39.08
2018-08-03T23:51:58.467Z,39.29
2018-08-03T23:54:26.293Z,39.76
2018-08-03T23:56:54.155Z,40.29
2018-08-03T23:59:21.989Z,38.88
